Observation data for Plains on 04/23/2019      Previous  Date  Next       Current Mesonet Observations  Soil Data  Daily Summary Page  Observations in Plain Language
KPPS 230500Z 04010G15KT 14/11 A3007 RMK A01 T01350112  RH  089%=      5-min Rain = 0
KPPS 230505Z 04010G17KT 13/11 A3007 RMK A01 T01340111  RH  089%=      5-min Rain = 0
KPPS 230510Z 05012KT 13/11 A3007 RMK A01 T01340111  RH  089%=      5-min Rain = 0
KPPS 230515Z 04012G17KT 13/11 A3006 RMK A01 T01330112  RH  090%=      5-min Rain = 0
KPPS 230520Z 04011KT 13/11 A3006 RMK A01 T01310113  RH  092%=      5-min Rain = 0
KPPS 230525Z 04011KT 13/11 A3005 RMK A01 T01300113  RH  093%=      5-min Rain = 0
KPPS 230530Z 04009KT 13/11 A3006 RMK A01 T01300113  RH  093%=      5-min Rain = 0.01
KPPS 230535Z 04010G17KT 13/11 A3006 RMK A01 T01290113  RH  093%=      5-min Rain = 0.01
KPPS 230540Z 03010G16KT 13/11 A3006 RMK A01 T01270112  RH  093%=      5-min Rain = 0
KPPS 230545Z 04012G17KT 13/11 A3006 RMK A01 T01260111  RH  094%=      5-min Rain = 0.01
KPPS 230550Z 04010G15KT 13/11 A3006 RMK A01 T01260111  RH  094%=      5-min Rain = 0.01
KPPS 230555Z 03007G12KT 13/11 A3007 RMK A01 T01260112  RH  095%=      5-min Rain = 0
KPPS 230600Z 03008KT 13/11 A3007 RMK A01 T01250111  RH  095%=      5-min Rain = 0
KPPS 230605Z 02007KT 12/11 A3007 RMK A01 T01240111  RH  095%=      5-min Rain = 0
KPPS 230610Z 01007G12KT 13/11 A3007 RMK A01 T01250112  RH  095%=      5-min Rain = 0
KPPS 230615Z 02007KT 13/11 A3008 RMK A01 T01250113  RH  096%=      5-min Rain = 0.04
KPPS 230620Z 02009KT 12/11 A3007 RMK A01 T01240111  RH  095%=      5-min Rain = 0.07
KPPS 230625Z 03008KT 12/11 A3007 RMK A01 T01230111  RH  096%=      5-min Rain = 0.01
KPPS 230630Z 03009KT 12/11 A3007 RMK A01 T01230112  RH  096%=      5-min Rain = 0
KPPS 230635Z 03010KT 12/11 A3007 RMK A01 T01230111  RH  096%=      5-min Rain = 0
KPPS 230640Z 03009G14KT 12/11 A3007 RMK A01 T01220111  RH  096%=      5-min Rain = 0
KPPS 230645Z 04010KT 12/11 A3006 RMK A01 T01220110  RH  096%=      5-min Rain = 0
KPPS 230650Z 03009KT 12/11 A3006 RMK A01 T01230111  RH  096%=      5-min Rain = 0
KPPS 230655Z 02009KT 12/11 A3006 RMK A01 T01220110  RH  096%=      5-min Rain = 0
KPPS 230700Z 02011KT 12/11 A3005 RMK A01 T01220110  RH  096%=      5-min Rain = 0.01
KPPS 230705Z 01010KT 12/11 A3005 RMK A01 T01220111  RH  096%=      5-min Rain = 0
KPPS 230710Z 00011KT 12/11 A3006 RMK A01 T01230111  RH  096%=      5-min Rain = 0
KPPS 230715Z 35009KT 12/11 A3006 RMK A01 T01230111  RH  096%=      5-min Rain = 0
KPPS 230720Z 34011KT 12/11 A3006 RMK A01 T01240112  RH  096%=      5-min Rain = 0
KPPS 230725Z 34014KT 12/11 A3006 RMK A01 T01230110  RH  095%=      5-min Rain = 0
KPPS 230730Z 34015KT 12/11 A3006 RMK A01 T01230109  RH  095%=      5-min Rain = 0
KPPS 230735Z 34015KT 12/11 A3006 RMK A01 T01230109  RH  095%=      5-min Rain = 0
KPPS 230740Z 34012KT 12/11 A3007 RMK A01 T01220109  RH  095%=      5-min Rain = 0.02
KPPS 230745Z 32013KT 12/11 A3008 RMK A01 T01220111  RH  096%=      5-min Rain = 0.03
KPPS 230750Z 31012KT 12/11 A3008 RMK A01 T01220110  RH  096%=      5-min Rain = 0.05
KPPS 230755Z 34010KT 12/11 A3008 RMK A01 T01210110  RH  096%=      5-min Rain = 0.03
KPPS 230800Z 02011KT 12/11 A3007 RMK A01 T01200109  RH  096%=      5-min Rain = 0.06
KPPS 230805Z 01014KT 12/11 A3005 RMK A01 T01190108  RH  097%=      5-min Rain = 0.04
KPPS 230810Z 01014G19KT 12/11 A3004 RMK A01 T01180108  RH  097%=      5-min Rain = 0.02
KPPS 230815Z 01014G19KT 12/11 A3003 RMK A01 T01180108  RH  097%=      5-min Rain = 0.01
KPPS 230820Z 02013G18KT 12/11 A3002 RMK A01 T01180108  RH  097%=      5-min Rain = 0
KPPS 230825Z 02013G20KT 12/11 A3001 RMK A01 T01180108  RH  097%=      5-min Rain = 0
KPPS 230830Z 03014G20KT 12/11 A3001 RMK A01 T01170107  RH  097%=      5-min Rain = 0
KPPS 230835Z 03012G18KT 12/11 A3001 RMK A01 T01170106  RH  096%=      5-min Rain = 0
KPPS 230840Z 02011G17KT 12/11 A3002 RMK A01 T01170106  RH  096%=      5-min Rain = 0
KPPS 230845Z 02009G14KT 12/11 A3003 RMK A01 T01170107  RH  097%=      5-min Rain = 0
KPPS 230850Z 04009KT 12/11 A3002 RMK A01 T01170106  RH  096%=      5-min Rain = 0
KPPS 230855Z 04011KT 12/11 A3002 RMK A01 T01170106  RH  096%=      5-min Rain = 0
KPPS 230900Z 04010KT 12/11 A3002 RMK A01 T01170106  RH  096%=      5-min Rain = 0
KPPS 230905Z 05011KT 12/11 A3002 RMK A01 T01180106  RH  096%=      5-min Rain = 0
KPPS 230910Z 04012KT 12/11 A3003 RMK A01 T01180106  RH  096%=      5-min Rain = 0
KPPS 230915Z 04010KT 12/11 A3003 RMK A01 T01180106  RH  096%=      5-min Rain = 0
KPPS 230920Z 03009KT 12/11 A3003 RMK A01 T01180106  RH  096%=      5-min Rain = 0
KPPS 230925Z 02009G14KT 12/11 A3003 RMK A01 T01180106  RH  096%=      5-min Rain = 0
KPPS 230930Z 02009G14KT 12/11 A3003 RMK A01 T01180106  RH  096%=      5-min Rain = 0
KPPS 230935Z 01008KT 12/11 A3004 RMK A01 T01180106  RH  096%=      5-min Rain = 0
KPPS 230940Z 00011KT 12/11 A3004 RMK A01 T01180107  RH  096%=      5-min Rain = 0
KPPS 230945Z 00012KT 12/11 A3004 RMK A01 T01180106  RH  095%=      5-min Rain = 0
KPPS 230950Z 00013KT 12/11 A3004 RMK A01 T01180105  RH  095%=      5-min Rain = 0
KPPS 230955Z 36012KT 12/11 A3005 RMK A01 T01180105  RH  095%=      5-min Rain = 0
KPPS 231000Z 35010G15KT 12/11 A3005 RMK A01 T01180105  RH  095%=      5-min Rain = 0
KPPS 231005Z 35011KT 12/11 A3005 RMK A01 T01180105  RH  095%=      5-min Rain = 0
KPPS 231010Z 35012G17KT 12/10 A3006 RMK A01 T01180104  RH  094%=      5-min Rain = 0
KPPS 231015Z 34011KT 12/10 A3006 RMK A01 T01180104  RH  095%=      5-min Rain = 0
KPPS 231020Z 33012KT 12/10 A3006 RMK A01 T01160104  RH  095%=      5-min Rain = 0
KPPS 231025Z 34013KT 12/10 A3006 RMK A01 T01150103  RH  095%=      5-min Rain = 0
KPPS 231030Z 34013KT 12/10 A3005 RMK A01 T01150103  RH  095%=      5-min Rain = 0
KPPS 231035Z 35012KT 12/10 A3005 RMK A01 T01150102  RH  095%=      5-min Rain = 0
KPPS 231040Z 35011G16KT 12/10 A3005 RMK A01 T01150102  RH  095%=      5-min Rain = 0
KPPS 231045Z 35011KT 11/10 A3005 RMK A01 T01140101  RH  095%=      5-min Rain = 0
KPPS 231050Z 36011KT 11/10 A3005 RMK A01 T01140101  RH  095%=      5-min Rain = 0
KPPS 231055Z 36010G15KT 11/10 A3006 RMK A01 T01140101  RH  095%=      5-min Rain = 0.01
KPPS 231100Z 35009KT 11/10 A3007 RMK A01 T01130101  RH  095%=      5-min Rain = 0.01
KPPS 231105Z 00007KT 11/10 A3007 RMK A01 T01130101  RH  095%=      5-min Rain = 0
KPPS 231110Z 03006KT 11/10 A3006 RMK A01 T01130100  RH  095%=      5-min Rain = 0
KPPS 231115Z 02009KT 11/10 A3006 RMK A01 T01120100  RH  095%=      5-min Rain = 0
KPPS 231120Z 02010G15KT 11/10 A3004 RMK A01 T01120100  RH  095%=      5-min Rain = 0
KPPS 231125Z 01011G17KT 11/10 A3004 RMK A01 T01120099  RH  095%=      5-min Rain = 0
KPPS 231130Z 01014G19KT 11/10 A3004 RMK A01 T01110099  RH  095%=      5-min Rain = 0
KPPS 231135Z 00015KT 11/10 A3004 RMK A01 T01110099  RH  095%=      5-min Rain = 0
KPPS 231140Z 01012G17KT 11/10 A3004 RMK A01 T01110098  RH  095%=      5-min Rain = 0
KPPS 231145Z 02012G17KT 11/10 A3004 RMK A01 T01100098  RH  095%=      5-min Rain = 0
KPPS 231150Z 02013G18KT 11/10 A3003 RMK A01 T01090096  RH  095%=      5-min Rain = 0
KPPS 231155Z 02013G19KT 11/10 A3003 RMK A01 T01090096  RH  095%=      5-min Rain = 0
KPPS 231200Z 02012G18KT 11/10 A3003 RMK A01 T01090097  RH  095%=      5-min Rain = 0
KPPS 231205Z 02013G19KT 11/10 A3003 RMK A01 T01090097  RH  095%=      5-min Rain = 0
KPPS 231210Z 02012G20KT 11/10 A3004 RMK A01 T01100097  RH  095%=      5-min Rain = 0
KPPS 231215Z 02012G18KT 11/10 A3004 RMK A01 T01100096  RH  094%=      5-min Rain = 0
KPPS 231220Z 02011KT 11/10 A3005 RMK A01 T01090096  RH  094%=      5-min Rain = 0
KPPS 231225Z 02010KT 11/10 A3005 RMK A01 T01080095  RH  095%=      5-min Rain = 0
KPPS 231230Z 02010G15KT 11/10 A3005 RMK A01 T01080095  RH  095%=      5-min Rain = 0
KPPS 231235Z 02009G14KT 11/10 A3005 RMK A01 T01080095  RH  095%=      5-min Rain = 0
KPPS 231240Z 02009KT 11/10 A3005 RMK A01 T01070095  RH  095%=      5-min Rain = 0
KPPS 231245Z 02008KT 11/10 A3006 RMK A01 T01070095  RH  095%=      5-min Rain = 0
KPPS 231250Z 02009KT 11/10 A3006 RMK A01 T01080095  RH  095%=      5-min Rain = 0
KPPS 231255Z 02009KT 11/10 A3006 RMK A01 T01100097  RH  094%=      5-min Rain = 0
KPPS 231300Z 02010KT 11/10 A3005 RMK A01 T01120097  RH  094%=      5-min Rain = 0
KPPS 231305Z 02008G14KT 11/10 A3006 RMK A01 T01110097  RH  094%=      5-min Rain = 0
KPPS 231310Z 02009KT 11/10 A3006 RMK A01 T01110096  RH  094%=      5-min Rain = 0
KPPS 231315Z 01009KT 11/10 A3006 RMK A01 T01100096  RH  094%=      5-min Rain = 0
KPPS 231320Z 01011KT 11/10 A3006 RMK A01 T01110096  RH  094%=      5-min Rain = 0
KPPS 231325Z 01010KT 11/10 A3006 RMK A01 T01110097  RH  094%=      5-min Rain = 0
KPPS 231330Z 02010KT 11/10 A3007 RMK A01 T01120097  RH  094%=      5-min Rain = 0
KPPS 231335Z 02011G16KT 11/10 A3007 RMK A01 T01120097  RH  094%=      5-min Rain = 0
KPPS 231340Z 02010KT 11/10 A3007 RMK A01 T01130098  RH  093%=      5-min Rain = 0
KPPS 231345Z 02011G16KT 11/10 A3007 RMK A01 T01130098  RH  093%=      5-min Rain = 0
KPPS 231350Z 02011G19KT 11/10 A3008 RMK A01 T01130098  RH  093%=      5-min Rain = 0
KPPS 231355Z 01012KT 11/10 A3007 RMK A01 T01130098  RH  093%=      5-min Rain = 0
KPPS 231400Z 01013KT 11/10 A3007 RMK A01 T01130099  RH  094%=      5-min Rain = 0
KPPS 231405Z 01014KT 11/10 A3008 RMK A01 T01130098  RH  093%=      5-min Rain = 0
KPPS 231410Z 02013KT 11/10 A3008 RMK A01 T01130098  RH  093%=      5-min Rain = 0
KPPS 231415Z 02012G17KT 11/10 A3007 RMK A01 T01140099  RH  094%=      5-min Rain = 0
KPPS 231420Z 02010G16KT 12/10 A3008 RMK A01 T01150100  RH  094%=      5-min Rain = 0
KPPS 231425Z 01011G18KT 12/10 A3008 RMK A01 T01150100  RH  093%=      5-min Rain = 0
KPPS 231430Z 01013G20KT 12/10 A3008 RMK A01 T01160100  RH  093%=      5-min Rain = 0
KPPS 231435Z 02011G18KT 12/10 A3008 RMK A01 T01170101  RH  093%=      5-min Rain = 0
KPPS 231440Z 02012G18KT 12/10 A3008 RMK A01 T01170100  RH  092%=      5-min Rain = 0
KPPS 231445Z 01012G17KT 12/10 A3008 RMK A01 T01170100  RH  092%=      5-min Rain = 0
KPPS 231450Z 01012G18KT 12/10 A3009 RMK A01 T01170100  RH  092%=      5-min Rain = 0
KPPS 231455Z 03012G18KT 12/10 A3009 RMK A01 T01170100  RH  092%=      5-min Rain = 0
KPPS 231500Z 03013G18KT 12/10 A3008 RMK A01 T01180100  RH  092%=      5-min Rain = 0
KPPS 231505Z 03012G18KT 12/10 A3008 RMK A01 T01190100  RH  091%=      5-min Rain = 0
KPPS 231510Z 03014G19KT 12/10 A3008 RMK A01 T01200101  RH  091%=      5-min Rain = 0
KPPS 231515Z 04015G20KT 12/10 A3007 RMK A01 T01220103  RH  091%=      5-min Rain = 0
KPPS 231520Z 05015KT 12/10 A3007 RMK A01 T01230104  RH  091%=      5-min Rain = 0
KPPS 231525Z 05015KT 13/11 A3007 RMK A01 T01250105  RH  090%=      5-min Rain = 0
KPPS 231530Z 05015G20KT 13/10 A3008 RMK A01 T01260104  RH  089%=      5-min Rain = 0
KPPS 231535Z 05016KT 13/10 A3007 RMK A01 T01250103  RH  089%=      5-min Rain = 0
KPPS 231540Z 05016G21KT 13/10 A3007 RMK A01 T01250103  RH  089%=      5-min Rain = 0
KPPS 231545Z 05014KT 13/11 A3007 RMK A01 T01270105  RH  089%=      5-min Rain = 0
KPPS 231550Z 04013G19KT 13/10 A3007 RMK A01 T01290104  RH  088%=      5-min Rain = 0
KPPS 231555Z 04015G20KT 13/10 A3007 RMK A01 T01280103  RH  088%=      5-min Rain = 0
KPPS 231600Z 04013G18KT 13/10 A3008 RMK A01 T01280104  RH  089%=      5-min Rain = 0
KPPS 231605Z 05011G17KT 13/11 A3008 RMK A01 T01330108  RH  088%=      5-min Rain = 0
KPPS 231610Z 05014KT 13/10 A3008 RMK A01 T01330104  RH  085%=      5-min Rain = 0
KPPS 231615Z 04012KT 13/10 A3009 RMK A01 T01320103  RH  085%=      5-min Rain = 0
KPPS 231620Z 03009G15KT 14/11 A3009 RMK A01 T01350106  RH  086%=      5-min Rain = 0
KPPS 231625Z 03009G14KT 14/11 A3009 RMK A01 T01360106  RH  085%=      5-min Rain = 0
KPPS 231630Z 02010KT 14/11 A301 RMK A01 T01350105  RH  085%=      5-min Rain = 0
KPPS 231635Z 03010G15KT 13/11 A301 RMK A01 T01340105  RH  085%=      5-min Rain = 0
KPPS 231640Z 02010G15KT 14/11 A301 RMK A01 T01360105  RH  084%=      5-min Rain = 0
KPPS 231645Z 03012KT 13/10 A301 RMK A01 T01340102  RH  083%=      5-min Rain = 0
KPPS 231650Z 03010KT 14/10 A3009 RMK A01 T01360103  RH  084%=      5-min Rain = 0
KPPS 231655Z 03010KT 14/10 A3009 RMK A01 T01360104  RH  084%=      5-min Rain = 0
KPPS 231700Z 04009G14KT 14/11 A3009 RMK A01 T01390106  RH  084%=      5-min Rain = 0
KPPS 231705Z 04011G19KT 14/11 A3009 RMK A01 T01430107  RH  082%=      5-min Rain = 0
KPPS 231710Z 04012KT 14/10 A3008 RMK A01 T01420104  RH  080%=      5-min Rain = 0
KPPS 231715Z 04007G13KT 14/11 A3008 RMK A01 T01440108  RH  082%=      5-min Rain = 0
KPPS 231720Z 05012KT 15/10 A3008 RMK A01 T01460104  RH  079%=      5-min Rain = 0
KPPS 231725Z 05011KT 15/10 A3008 RMK A01 T01470103  RH  078%=      5-min Rain = 0
KPPS 231730Z 06010G15KT 15/11 A3009 RMK A01 T01490105  RH  077%=      5-min Rain = 0
KPPS 231735Z 07009KT 15/11 A3009 RMK A01 T01500105  RH  077%=      5-min Rain = 0
KPPS 231740Z 05008G13KT 15/11 A3008 RMK A01 T01490106  RH  078%=      5-min Rain = 0
KPPS 231745Z 05008KT 15/10 A3008 RMK A01 T01500104  RH  077%=      5-min Rain = 0
KPPS 231750Z 04010KT 15/10 A3008 RMK A01 T01540102  RH  074%=      5-min Rain = 0
KPPS 231755Z 05010KT 16/10 A3008 RMK A01 T01550102  RH  073%=      5-min Rain = 0
KPPS 231800Z 05009KT 16/10 A3008 RMK A01 T01560102  RH  073%=      5-min Rain = 0
KPPS 231805Z 04009KT 16/10 A3008 RMK A01 T01570101  RH  072%=      5-min Rain = 0
KPPS 231810Z 04009KT 16/11 A3008 RMK A01 T01590106  RH  073%=      5-min Rain = 0
KPPS 231815Z 04008KT 16/10 A3008 RMK A01 T01590103  RH  072%=      5-min Rain = 0
KPPS 231820Z 06009KT 16/10 A3008 RMK A01 T01570100  RH  071%=      5-min Rain = 0
KPPS 231825Z 06008KT 15/10 A3008 RMK A01 T01540101  RH  073%=      5-min Rain = 0
KPPS 231830Z 03008KT 15/11 A3008 RMK A01 T01540106  RH  076%=      5-min Rain = 0
KPPS 231835Z 03010KT 15/11 A3007 RMK A01 T01530105  RH  076%=      5-min Rain = 0
KPPS 231840Z 03009KT 15/10 A3007 RMK A01 T01520104  RH  075%=      5-min Rain = 0
KPPS 231845Z 02009KT 15/11 A3007 RMK A01 T01540105  RH  075%=      5-min Rain = 0
KPPS 231850Z 03008KT 16/11 A3007 RMK A01 T01570106  RH  074%=      5-min Rain = 0
KPPS 231855Z 03009G14KT 16/10 A3007 RMK A01 T01570104  RH  073%=      5-min Rain = 0
KPPS 231900Z 04009KT 16/11 A3007 RMK A01 T01590105  RH  073%=      5-min Rain = 0
KPPS 231905Z 04009KT 16/10 A3007 RMK A01 T01590104  RH  072%=      5-min Rain = 0
KPPS 231910Z 04009KT 16/10 A3007 RMK A01 T01590102  RH  071%=      5-min Rain = 0
KPPS 231915Z 03007KT 16/10 A3007 RMK A01 T01600104  RH  072%=      5-min Rain = 0
KPPS 231920Z 03009KT 16/10 A3007 RMK A01 T01600103  RH  071%=      5-min Rain = 0
KPPS 231925Z 04009KT 16/10 A3006 RMK A01 T01600104  RH  072%=      5-min Rain = 0
KPPS 231930Z 04010KT 16/10 A3006 RMK A01 T01600104  RH  072%=      5-min Rain = 0
KPPS 231935Z 03009KT 16/11 A3006 RMK A01 T01580110  RH  076%=      5-min Rain = 0
KPPS 231940Z 02009KT 16/11 A3006 RMK A01 T01570109  RH  076%=      5-min Rain = 0
KPPS 231945Z 02009KT 16/11 A3006 RMK A01 T01560109  RH  076%=      5-min Rain = 0
KPPS 231950Z 02009KT 16/11 A3006 RMK A01 T01600113  RH  076%=      5-min Rain = 0
KPPS 231955Z 02010G15KT 16/12 A3006 RMK A01 T01600115  RH  078%=      5-min Rain = 0
KPPS 232000Z 01010KT 16/11 A3006 RMK A01 T01570112  RH  077%=      5-min Rain = 0
KPPS 232005Z 01010KT 16/11 A3006 RMK A01 T01580111  RH  076%=      5-min Rain = 0
KPPS 232010Z 02011KT 16/11 A3006 RMK A01 T01580113  RH  077%=      5-min Rain = 0
KPPS 232015Z 01010G15KT 16/11 A3005 RMK A01 T01590113  RH  077%=      5-min Rain = 0
KPPS 232020Z 01012KT 16/11 A3005 RMK A01 T01610114  RH  077%=      5-min Rain = 0
KPPS 232025Z 02010KT 16/11 A3005 RMK A01 T01610114  RH  076%=      5-min Rain = 0
KPPS 232030Z 01012KT 16/11 A3005 RMK A01 T01600112  RH  076%=      5-min Rain = 0
KPPS 232035Z 03008KT 16/12 A3005 RMK A01 T01610115  RH  077%=      5-min Rain = 0
KPPS 232040Z 03011G17KT 16/11 A3005 RMK A01 T01610112  RH  075%=      5-min Rain = 0
KPPS 232045Z 03010G15KT 16/11 A3005 RMK A01 T01590111  RH  076%=      5-min Rain = 0
KPPS 232050Z 01012KT 16/11 A3004 RMK A01 T01590114  RH  077%=      5-min Rain = 0
KPPS 232055Z 02012KT 16/11 A3004 RMK A01 T01570114  RH  078%=      5-min Rain = 0
KPPS 232100Z 02010KT 16/12 A3004 RMK A01 T01590115  RH  078%=      5-min Rain = 0
KPPS 232105Z 01013KT 16/11 A3004 RMK A01 T01570114  RH  078%=      5-min Rain = 0
KPPS 232110Z 01013G18KT 16/11 A3004 RMK A01 T01560114  RH  079%=      5-min Rain = 0
KPPS 232115Z 02012G18KT 16/11 A3004 RMK A01 T01560114  RH  079%=      5-min Rain = 0
KPPS 232120Z 02013G19KT 15/11 A3004 RMK A01 T01530113  RH  080%=      5-min Rain = 0
KPPS 232125Z 02012G20KT 15/11 A3004 RMK A01 T01520113  RH  080%=      5-min Rain = 0
KPPS 232130Z 02013G21KT 15/11 A3004 RMK A01 T01460111  RH  082%=      5-min Rain = 0.01
KPPS 232135Z 02014KT 15/11 A3004 RMK A01 T01450112  RH  084%=      5-min Rain = 0
KPPS 232140Z 02014G20KT 14/11 A3004 RMK A01 T01420110  RH  084%=      5-min Rain = 0
KPPS 232145Z 01014G19KT 14/11 A3004 RMK A01 T01390109  RH  085%=      5-min Rain = 0
KPPS 232150Z 02012KT 14/11 A3004 RMK A01 T01430111  RH  084%=      5-min Rain = 0
KPPS 232155Z 02011KT 14/11 A3004 RMK A01 T01420109  RH  083%=      5-min Rain = 0
KPPS 232200Z 01012G17KT 14/11 A3004 RMK A01 T01400110  RH  085%=      5-min Rain = 0
KPPS 232205Z 02013KT 14/11 A3004 RMK A01 T01380108  RH  085%=      5-min Rain = 0
KPPS 232210Z 03011G17KT 14/11 A3004 RMK A01 T01370109  RH  086%=      5-min Rain = 0
KPPS 232215Z 02013KT 13/11 A3004 RMK A01 T01340108  RH  087%=      5-min Rain = 0
KPPS 232220Z 02012G18KT 13/11 A3004 RMK A01 T01340108  RH  087%=      5-min Rain = 0
KPPS 232225Z 02012KT 14/11 A3004 RMK A01 T01360107  RH  086%=      5-min Rain = 0
KPPS 232230Z 02010G16KT 14/11 A3003 RMK A01 T01400108  RH  084%=      5-min Rain = 0
KPPS 232235Z 02011G17KT 15/11 A3003 RMK A01 T01460112  RH  083%=      5-min Rain = 0
KPPS 232240Z 02012G17KT 14/11 A3003 RMK A01 T01430109  RH  083%=      5-min Rain = 0
KPPS 232245Z 01014G19KT 14/11 A3003 RMK A01 T01400108  RH  084%=      5-min Rain = 0
KPPS 232250Z 01014KT 14/11 A3003 RMK A01 T01370107  RH  085%=      5-min Rain = 0
KPPS 232255Z 02012G17KT 14/11 A3003 RMK A01 T01390109  RH  085%=      5-min Rain = 0
KPPS 232300Z 02012KT 14/11 A3003 RMK A01 T01380109  RH  086%=      5-min Rain = 0
KPPS 232305Z 01013KT 14/11 A3003 RMK A01 T01350106  RH  086%=      5-min Rain = 0
KPPS 232310Z 02012G17KT 13/11 A3003 RMK A01 T01330106  RH  086%=      5-min Rain = 0
KPPS 232315Z 02012KT 13/11 A3003 RMK A01 T01320105  RH  087%=      5-min Rain = 0
KPPS 232320Z 02011KT 13/11 A3003 RMK A01 T01310105  RH  087%=      5-min Rain = 0
KPPS 232325Z 02011G18KT 13/11 A3003 RMK A01 T01330106  RH  086%=      5-min Rain = 0
KPPS 232330Z 02013KT 13/10 A3002 RMK A01 T01340104  RH  085%=      5-min Rain = 0
KPPS 232335Z 02011KT 14/11 A3002 RMK A01 T01360105  RH  084%=      5-min Rain = 0
KPPS 232340Z 02010G15KT 14/11 A3002 RMK A01 T01360105  RH  085%=      5-min Rain = 0
KPPS 232345Z 01013KT 13/10 A3002 RMK A01 T01340104  RH  085%=      5-min Rain = 0
KPPS 232350Z 01013KT 13/10 A3002 RMK A01 T01330102  RH  085%=      5-min Rain = 0
KPPS 232355Z 02011G16KT 14/10 A3002 RMK A01 T01350103  RH  084%=      5-min Rain = 0
KPPS 240000Z 02012KT 13/10 A3002 RMK A01 T01340102  RH  084%=      5-min Rain = 0
KPPS 240005Z 02012G19KT 13/10 A3002 RMK A01 T01320101  RH  084%=      5-min Rain = 0
KPPS 240010Z 02012KT 13/10 A3002 RMK A01 T01320099  RH  083%=      5-min Rain = 0
KPPS 240015Z 02013G19KT 13/10 A3002 RMK A01 T01310100  RH  084%=      5-min Rain = 0
KPPS 240020Z 01013KT 13/10 A3003 RMK A01 T01300099  RH  084%=      5-min Rain = 0
KPPS 240025Z 02012G18KT 13/10 A3003 RMK A01 T01300099  RH  084%=      5-min Rain = 0
KPPS 240030Z 03012G17KT 13/10 A3003 RMK A01 T01290098  RH  084%=      5-min Rain = 0
KPPS 240035Z 03011G17KT 13/10 A3003 RMK A01 T01290098  RH  084%=      5-min Rain = 0
KPPS 240040Z 03012G17KT 13/10 A3003 RMK A01 T01290097  RH  084%=      5-min Rain = 0
KPPS 240045Z 03010G16KT 13/10 A3004 RMK A01 T01290097  RH  084%=      5-min Rain = 0
KPPS 240050Z 02011KT 13/10 A3004 RMK A01 T01290096  RH  083%=      5-min Rain = 0
KPPS 240055Z 03010G16KT 13/10 A3004 RMK A01 T01290097  RH  083%=      5-min Rain = 0
KPPS 240100Z 02010KT 13/10 A3003 RMK A01 T01290097  RH  084%=      5-min Rain = 0
KPPS 240105Z 03011KT 13/10 A3003 RMK A01 T01280096  RH  084%=      5-min Rain = 0
KPPS 240110Z 02011G19KT 13/09 A3003 RMK A01 T01280094  RH  083%=      5-min Rain = 0
KPPS 240115Z 02011G17KT 13/09 A3003 RMK A01 T01270094  RH  083%=      5-min Rain = 0
KPPS 240120Z 03009KT 13/10 A3003 RMK A01 T01270096  RH  084%=      5-min Rain = 0
KPPS 240125Z 03011KT 13/10 A3003 RMK A01 T01270096  RH  084%=      5-min Rain = 0
KPPS 240130Z 03011G17KT 13/10 A3003 RMK A01 T01260095  RH  084%=      5-min Rain = 0
KPPS 240135Z 02010KT 13/10 A3003 RMK A01 T01260095  RH  084%=      5-min Rain = 0
KPPS 240140Z 02011G17KT 13/10 A3003 RMK A01 T01260096  RH  084%=      5-min Rain = 0
KPPS 240145Z 03010G16KT 13/10 A3003 RMK A01 T01250097  RH  085%=      5-min Rain = 0
KPPS 240150Z 03010KT 12/10 A3003 RMK A01 T01240096  RH  085%=      5-min Rain = 0
KPPS 240155Z 03009KT 12/10 A3003 RMK A01 T01240097  RH  086%=      5-min Rain = 0
KPPS 240200Z 03010G15KT 12/10 A3003 RMK A01 T01240097  RH  086%=      5-min Rain = 0
KPPS 240205Z 03011G16KT 12/10 A3003 RMK A01 T01230095  RH  086%=      5-min Rain = 0
KPPS 240210Z 03010KT 12/10 A3003 RMK A01 T01220095  RH  086%=      5-min Rain = 0
KPPS 240215Z 03010KT 12/09 A3004 RMK A01 T01220093  RH  085%=      5-min Rain = 0
KPPS 240220Z 03009G14KT 12/09 A3005 RMK A01 T01230092  RH  084%=      5-min Rain = 0
KPPS 240225Z 02008KT 12/09 A3005 RMK A01 T01230093  RH  084%=      5-min Rain = 0
KPPS 240230Z 03008KT 12/09 A3005 RMK A01 T01230094  RH  085%=      5-min Rain = 0
KPPS 240235Z 03008KT 12/09 A3005 RMK A01 T01230094  RH  085%=      5-min Rain = 0
KPPS 240240Z 03009KT 12/09 A3005 RMK A01 T01220094  RH  085%=      5-min Rain = 0
KPPS 240245Z 03008KT 12/09 A3005 RMK A01 T01220094  RH  086%=      5-min Rain = 0
KPPS 240250Z 02009KT 12/09 A3005 RMK A01 T01220093  RH  085%=      5-min Rain = 0
KPPS 240255Z 02008KT 12/09 A3005 RMK A01 T01220094  RH  086%=      5-min Rain = 0
KPPS 240300Z 02009G14KT 12/09 A3005 RMK A01 T01210094  RH  086%=      5-min Rain = 0
KPPS 240305Z 02009KT 12/09 A3005 RMK A01 T01200093  RH  086%=      5-min Rain = 0
KPPS 240310Z 01009KT 12/09 A3006 RMK A01 T01200093  RH  086%=      5-min Rain = 0
KPPS 240315Z 01008KT 12/09 A3006 RMK A01 T01190094  RH  087%=      5-min Rain = 0
KPPS 240320Z 01009KT 12/09 A3006 RMK A01 T01190093  RH  087%=      5-min Rain = 0
KPPS 240325Z 01009KT 12/09 A3004 RMK A01 T01190093  RH  087%=      5-min Rain = 0
KPPS 240330Z 01009KT 12/09 A3004 RMK A01 T01180092  RH  087%=      5-min Rain = 0
KPPS 240335Z 01010KT 12/09 A3004 RMK A01 T01170092  RH  087%=      5-min Rain = 0
KPPS 240340Z 02009KT 12/09 A3004 RMK A01 T01170091  RH  087%=      5-min Rain = 0
KPPS 240345Z 02008KT 12/09 A3005 RMK A01 T01160092  RH  088%=      5-min Rain = 0
KPPS 240350Z 02008KT 12/09 A3005 RMK A01 T01160092  RH  088%=      5-min Rain = 0
KPPS 240355Z 03008KT 12/09 A3005 RMK A01 T01150091  RH  088%=      5-min Rain = 0
KPPS 240400Z 04008KT 12/09 A3006 RMK A01 T01150091  RH  088%=      5-min Rain = 0
KPPS 240405Z 04007KT 11/09 A3006 RMK A01 T01130091  RH  089%=      5-min Rain = 0
KPPS 240410Z 05008KT 11/09 A3006 RMK A01 T01130091  RH  089%=      5-min Rain = 0
KPPS 240415Z 05008KT 11/09 A3006 RMK A01 T01120090  RH  089%=      5-min Rain = 0
KPPS 240420Z 04008KT 11/09 A3006 RMK A01 T01110089  RH  089%=      5-min Rain = 0
KPPS 240425Z 04007KT 11/09 A3006 RMK A01 T01110088  RH  088%=      5-min Rain = 0
KPPS 240430Z 04008KT 11/09 A3006 RMK A01 T01100087  RH  088%=      5-min Rain = 0
KPPS 240435Z 04009KT 11/09 A3005 RMK A01 T01100086  RH  088%=      5-min Rain = 0
KPPS 240440Z 04008G14KT 11/09 A3005 RMK A01 T01090085  RH  087%=      5-min Rain = 0
KPPS 240445Z 03008KT 11/08 A3004 RMK A01 T01080084  RH  087%=      5-min Rain = 0
KPPS 240450Z 03009KT 11/08 A3004 RMK A01 T01080083  RH  087%=      5-min Rain = 0
KPPS 240455Z 03008KT 11/08 A3003 RMK A01 T01070082  RH  087%=      5-min Rain = 0

Page generated in 0.0165 seconds.